METAR Formatted Surface Weather Observation
Issued by NWS

Home | Current Version | Previous Version | Text Only | Print | Product List | Glossary On
Versions: 1 2 3 4 5 6 7 8 9 10 11 12 13 14 15 16 17 18 19 20 21 22 23 24 25 26 27
315
SAUS44 KFWD 240559
MTRNQI
METAR KNQI 240556Z AUTO 35008KT 10SM BKN060 19/17 A2993 RMK AO2
SLP131 60038 T01940172 10306 20194 403220194 51021 $



USA.gov is the U.S. government's official web portal to all federal, state and local government web resources and services.